Time;durP1;ratioP1;P1;durP2;ratioP2;P2;SDS_P1;SDS_P2;PMS_P1;PMS_P2;Temp;Humidity;BMP_temperature;BMP_pressure;BME280_temperature;BME280_humidity;BME280_pressure;Samples;Min_cycle;Max_cycle;Signal;HPM_P1;HPM_P2
2022/10/13 00:00:55;;;;;;;4.90;2.30;;;;;;;9.93;60.15;100455.47;5006983;28;20099;-79
2022/10/13 00:03:21;;;;;;;4.43;2.45;;;;;;;9.82;60.11;100440.69;5008855;28;20037;-78
2022/10/13 00:05:49;;;;;;;4.88;2.55;;;;;;;9.62;59.81;100413.72;5007122;28;20058;-79
2022/10/13 00:08:19;;;;;;;5.30;2.40;;;;;;;9.78;59.94;100442.41;5006827;28;20038;-79
2022/10/13 00:10:47;;;;;;;5.43;2.50;;;;;;;9.72;60.12;100453.63;5007140;28;20046;-78
2022/10/13 00:13:14;;;;;;;4.35;2.40;;;;;;;9.76;59.98;100457.97;5004057;28;21016;-79
2022/10/13 00:15:43;;;;;;;5.88;2.22;;;;;;;9.62;59.77;100437.13;5008373;28;20140;-79
2022/10/13 00:18:09;;;;;;;5.18;2.53;;;;;;;9.58;59.96;100439.69;5008084;28;20506;-77
2022/10/13 00:20:40;;;;;;;4.07;2.20;;;;;;;9.32;59.80;100417.91;5009380;28;20994;-79
2022/10/13 00:23:07;;;;;;;4.70;2.30;;;;;;;9.46;59.68;100454.38;5007891;28;20127;-77
2022/10/13 00:25:45;;;;;;;3.88;2.10;;;;;;;9.40;59.95;100456.03;4989868;28;20050;-78
2022/10/13 00:28:13;;;;;;;3.97;2.65;;;;;;;9.39;60.36;100459.50;5006601;28;20432;-79
2022/10/13 00:30:40;;;;;;;6.82;2.58;;;;;;;9.26;60.15;100441.25;5005602;28;20042;-77
2022/10/13 00:33:06;;;;;;;6.57;2.38;;;;;;;9.38;60.42;100463.84;5004911;28;20034;-78
2022/10/13 00:35:33;;;;;;;5.60;2.45;;;;;;;9.32;60.07;100454.28;5005384;28;20080;-78
2022/10/13 00:37:59;;;;;;;2.65;2.25;;;;;;;9.21;60.55;100445.53;5007007;28;20087;-79
2022/10/13 00:40:29;;;;;;;5.82;2.65;;;;;;;9.12;60.62;100435.94;4989323;28;20178;-80
2022/10/13 00:42:55;;;;;;;4.82;2.33;;;;;;;9.26;60.66;100463.75;4988219;28;20069;-79
2022/10/13 00:45:26;;;;;;;4.78;2.20;;;;;;;9.28;60.18;100478.50;4989252;28;20913;-78
2022/10/13 00:47:57;;;;;;;4.88;2.20;;;;;;;9.21;60.65;100473.25;5005052;28;20806;-78
2022/10/13 00:50:31;;;;;;;4.97;2.90;;;;;;;9.10;60.58;100466.22;5002138;28;20503;-78
2022/10/13 00:52:58;;;;;;;4.35;2.47;;;;;;;9.13;60.41;100476.63;5006202;28;20220;-79
2022/10/13 00:55:29;;;;;;;4.07;2.30;;;;;;;9.02;60.56;100466.16;5005084;28;20037;-79
2022/10/13 00:58:00;;;;;;;4.57;2.33;;;;;;;9.05;60.42;100486.06;5007008;28;20100;-80
2022/10/13 01:00:29;;;;;;;2.97;2.30;;;;;;;8.91;60.33;100464.34;5009363;28;20037;-79
2022/10/13 01:02:55;;;;;;;4.70;2.50;;;;;;;8.81;60.76;100469.47;5009084;28;20041;-78
2022/10/13 01:05:23;;;;;;;4.18;2.17;;;;;;;8.73;61.00;100471.09;5006825;28;20047;-78
2022/10/13 01:07:50;;;;;;;5.13;2.53;;;;;;;8.54;60.83;100455.38;4989930;28;20049;-80
2022/10/13 01:10:45;;;;;;;6.45;2.78;;;;;;;8.40;60.65;100460.38;5005461;28;20034;-79
2022/10/13 01:13:22;;;;;;;6.07;2.75;;;;;;;8.44;61.07;100493.28;5002476;28;20052;-80
2022/10/13 01:16:04;;;;;;;5.25;2.80;;;;;;;8.25;61.28;100480.97;5026336;28;20104;-80
2022/10/13 01:18:39;;;;;;;;;;;;;;;8.24;61.57;100487.84;5013315;28;20042;-77
2022/10/13 01:21:21;;;;;;;4.10;2.53;;;;;;;8.15;61.27;100490.34;4995929;28;19917;-79
2022/10/13 01:24:06;;;;;;;;;;;;;;;8.07;61.62;100497.16;5023105;28;20038;-79
2022/10/13 01:26:53;;;;;;;6.38;2.53;;;;;;;7.83;62.01;100476.13;5010411;28;19967;-77
2022/10/13 01:29:44;;;;;;;4.38;2.63;;;;;;;7.89;61.95;100501.25;5010237;28;20026;-79
2022/10/13 01:32:22;;;;;;;4.32;2.20;;;;;;;7.77;62.12;100485.53;5010285;28;20045;-78
2022/10/13 01:35:13;;;;;;;8.80;2.90;;;;;;;7.79;62.41;100502.84;4993434;28;20131;-78
2022/10/13 01:38:12;;;;;;;9.18;2.72;;;;;;;7.74;62.24;100499.31;5009518;28;20046;-79
2022/10/13 01:40:56;;;;;;;5.60;2.83;;;;;;;7.61;62.43;100487.91;5009147;28;20042;-78
2022/10/13 01:43:28;;;;;;;6.63;3.10;;;;;;;7.69;62.77;100500.97;5009343;28;20052;-79
2022/10/13 01:46:06;;;;;;;4.70;2.40;;;;;;;7.69;62.60;100507.03;5009487;28;20042;-80
2022/10/13 01:48:35;;;;;;;5.90;2.47;;;;;;;7.61;62.96;100489.66;5004135;28;20125;-78
2022/10/13 01:51:01;;;;;;;3.58;2.50;;;;;;;7.64;62.91;100489.66;5009509;28;20038;-81
2022/10/13 01:53:28;;;;;;;6.47;2.70;;;;;;;7.67;62.95;100500.06;5006760;28;20103;-78
2022/10/13 01:55:58;;;;;;;4.40;2.78;;;;;;;7.66;63.32;100500.94;5008998;28;20137;-79
2022/10/13 01:58:32;;;;;;;4.57;2.50;;;;;;;7.65;63.24;100505.25;5022462;28;20505;-78
2022/10/13 02:01:20;;;;;;;5.18;2.28;;;;;;;7.62;63.44;100504.31;4991064;28;20430;-78
2022/10/13 02:04:11;;;;;;;4.72;2.40;;;;;;;7.51;62.64;100510.22;4991398;28;20041;-78
2022/10/13 02:06:40;;;;;;;3.70;2.35;;;;;;;7.30;63.63;100499.53;5007613;28;20912;-78
2022/10/13 02:09:30;;;;;;;7.90;3.05;;;;;;;7.41;63.64;100508.31;5009078;28;20095;-78
2022/10/13 02:12:06;;;;;;;4.20;2.70;;;;;;;7.37;63.69;100511.75;5008921;28;20551;-77
2022/10/13 02:14:39;;;;;;;4.93;2.50;;;;;;;7.40;64.05;100516.94;5009212;28;20073;-78
2022/10/13 02:17:05;;;;;;;5.88;2.55;;;;;;;7.37;64.14;100519.50;5008073;28;20045;-77
2022/10/13 02:19:36;;;;;;;5.82;2.60;;;;;;;7.20;63.97;100495.94;5009401;28;20064;-80
2022/10/13 02:22:04;;;;;;;6.75;2.63;;;;;;;7.33;64.46;100512.53;4994215;28;20636;-78
2022/10/13 02:24:31;;;;;;;4.85;2.95;;;;;;;7.42;64.60;100519.56;4991443;28;20140;-77
2022/10/13 02:26:57;;;;;;;8.15;2.78;;;;;;;7.26;64.44;100493.44;5005705;28;20038;-78
2022/10/13 02:29:24;;;;;;;7.07;2.75;;;;;;;7.36;64.51;100522.94;5007669;28;20452;-78
2022/10/13 02:31:52;;;;;;;6.68;2.90;;;;;;;7.16;64.24;100492.44;5014689;28;20048;-78
2022/10/13 02:34:18;;;;;;;6.85;3.13;;;;;;;7.29;64.87;100516.78;4990626;28;20049;-78
2022/10/13 02:36:45;;;;;;;7.55;2.85;;;;;;;7.12;64.71;100495.81;5007306;28;20049;-77
2022/10/13 02:39:11;;;;;;;5.25;2.78;;;;;;;7.18;65.23;100526.94;4990434;28;20144;-76
2022/10/13 02:41:37;;;;;;;7.25;2.25;;;;;;;7.06;64.72;100509.50;5007499;28;20156;-77
2022/10/13 02:44:04;;;;;;;10.18;2.90;;;;;;;6.93;64.76;100517.91;5001427;28;20073;-79
2022/10/13 02:46:35;;;;;;;6.00;2.65;;;;;;;6.95;64.87;100528.31;5007478;28;20050;-79
2022/10/13 02:49:01;;;;;;;5.57;2.72;;;;;;;6.88;65.30;100519.53;5008201;28;20433;-78
2022/10/13 02:51:28;;;;;;;6.38;3.17;;;;;;;6.76;65.17;100507.25;5005840;28;20401;-77
2022/10/13 02:53:54;;;;;;;8.85;3.63;;;;;;;6.87;65.31;100535.91;5003491;28;20068;-80
2022/10/13 02:56:20;;;;;;;5.88;2.90;;;;;;;6.86;65.70;100524.69;5006895;28;20037;-79
2022/10/13 02:58:46;;;;;;;4.18;3.00;;;;;;;6.79;65.62;100512.47;5005781;28;20558;-77
2022/10/13 03:01:14;;;;;;;9.35;3.58;;;;;;;6.84;65.63;100518.63;5003839;28;20041;-78
2022/10/13 03:03:40;;;;;;;6.25;3.55;;;;;;;6.98;65.31;100531.81;5008385;28;20052;-80
2022/10/13 03:06:07;;;;;;;8.57;4.47;;;;;;;7.01;65.71;100526.69;4990207;28;20065;-78
2022/10/13 03:08:34;;;;;;;12.60;4.35;;;;;;;6.98;65.69;100515.38;5006286;28;20418;-79
2022/10/13 03:11:00;;;;;;;8.65;4.30;;;;;;;7.05;65.16;100517.25;5005868;28;20453;-78
2022/10/13 03:13:26;;;;;;;13.18;4.03;;;;;;;6.75;65.43;100472.78;5007403;28;20129;-78
2022/10/13 03:15:52;;;;;;;17.70;5.53;;;;;;;7.07;65.56;100511.25;5007257;28;20049;-78
2022/10/13 03:18:18;;;;;;;11.43;4.97;;;;;;;7.02;65.47;100507.72;5008090;28;20049;-78
2022/10/13 03:20:44;;;;;;;11.00;4.13;;;;;;;7.11;65.48;100508.72;4995314;28;20069;-80
2022/10/13 03:23:12;;;;;;;11.90;4.45;;;;;;;7.22;65.92;100535.66;5012437;28;20076;-78
2022/10/13 03:25:38;;;;;;;7.15;4.03;;;;;;;7.21;65.64;100532.19;5022872;28;20042;-80
2022/10/13 03:28:04;;;;;;;11.98;4.03;;;;;;;7.18;65.37;100520.91;5017488;28;20073;-80
2022/10/13 03:30:30;;;;;;;10.93;4.50;;;;;;;7.27;65.50;100533.13;5011454;28;20425;-78
2022/10/13 03:32:56;;;;;;;8.25;3.80;;;;;;;7.24;65.64;100527.06;5011543;28;20404;-78
2022/10/13 03:35:22;;;;;;;9.10;3.85;;;;;;;7.24;65.30;100518.44;5005821;28;20053;-78
2022/10/13 03:37:52;;;;;;;7.85;3.95;;;;;;;7.32;65.97;100524.59;5015308;28;20081;-79
2022/10/13 03:40:22;;;;;;;8.07;3.42;;;;;;;7.37;65.60;100540.22;5009893;28;20431;-77
2022/10/13 03:42:48;;;;;;;10.65;3.72;;;;;;;7.24;65.33;100508.09;5016297;28;20042;-78
2022/10/13 03:45:14;;;;;;;12.00;4.88;;;;;;;7.39;65.54;100525.59;5011186;28;20061;-79
2022/10/13 03:47:40;;;;;;;8.13;4.57;;;;;;;7.48;65.57;100540.41;5005940;28;20041;-79
2022/10/13 03:50:07;;;;;;;7.45;3.28;;;;;;;7.55;65.75;100539.63;5003595;28;20034;-78
2022/10/13 03:52:33;;;;;;;7.43;3.13;;;;;;;7.67;65.38;100544.13;5019145;28;20506;-77
2022/10/13 03:54:59;;;;;;;8.75;3.17;;;;;;;7.42;65.56;100496.28;5018898;28;20041;-78
2022/10/13 03:57:47;;;;;;;5.50;3.00;;;;;;;7.74;65.63;100538.19;5006130;28;20523;-79
2022/10/13 04:00:14;;;;;;;8.27;2.88;;;;;;;7.73;65.11;100520.00;5001165;28;20038;-77
2022/10/13 04:02:41;;;;;;;6.75;3.28;;;;;;;7.94;65.34;100560.91;5007223;28;20037;-77
2022/10/13 04:05:07;;;;;;;4.78;2.72;;;;;;;7.94;65.20;100538.47;5004569;28;20053;-79
2022/10/13 04:07:33;;;;;;;6.68;3.17;;;;;;;7.99;65.23;100544.56;5007920;28;20192;-78
2022/10/13 04:10:03;;;;;;;5.53;2.80;;;;;;;7.32;65.20;100423.63;5008471;28;20034;-83
2022/10/13 04:12:32;;;;;;;6.13;3.03;;;;;;;8.01;64.91;100531.66;5008573;28;20446;-79
2022/10/13 04:14:58;;;;;;;4.95;3.00;;;;;;;8.08;64.98;100535.19;5006017;28;20133;-80
2022/10/13 04:17:26;;;;;;;8.07;3.40;;;;;;;8.27;64.78;100564.84;5007972;28;20038;-80
2022/10/13 04:19:52;;;;;;;7.15;3.20;;;;;;;8.34;64.57;100564.03;5003332;28;20040;-80
2022/10/13 04:22:26;;;;;;;6.22;3.50;;;;;;;8.30;64.79;100557.06;5008677;28;20042;-81
2022/10/13 04:24:52;;;;;;;7.90;3.38;;;;;;;8.37;64.54;100566.66;5006163;28;20046;-78
2022/10/13 04:27:30;;;;;;;7.70;3.25;;;;;;;8.51;64.43;100573.78;4988029;28;20046;-79
2022/10/13 04:29:56;;;;;;;7.53;3.08;;;;;;;8.54;64.78;100571.22;5005536;28;20054;-79
2022/10/13 04:32:22;;;;;;;11.07;3.40;;;;;;;8.37;64.47;100547.66;5003167;28;20048;-79
2022/10/13 04:34:48;;;;;;;6.57;3.08;;;;;;;8.41;64.51;100539.03;5006539;28;20058;-79
2022/10/13 04:37:14;;;;;;;5.97;3.38;;;;;;;8.56;64.79;100557.44;5006765;28;20073;-80
2022/10/13 04:39:40;;;;;;;8.18;3.08;;;;;;;8.39;64.62;100517.41;5004990;28;20046;-79
2022/10/13 04:42:06;;;;;;;6.18;3.28;;;;;;;8.79;64.51;100581.88;5006133;28;20096;-81
2022/10/13 04:44:39;;;;;;;4.85;3.60;;;;;;;8.85;64.42;100580.22;5005256;28;20056;-78
2022/10/13 04:47:10;;;;;;;7.15;3.30;;;;;;;8.77;64.20;100558.53;5003561;28;20046;-78
2022/10/13 04:49:36;;;;;;;7.00;4.00;;;;;;;8.70;64.20;100554.09;5004936;28;20040;-80
2022/10/13 04:52:02;;;;;;;6.20;3.47;;;;;;;8.96;63.98;100588.13;5006005;28;20042;-79
2022/10/13 04:54:44;;;;;;;9.15;4.10;;;;;;;8.57;64.24;100519.38;4977998;28;20127;-80
2022/10/13 04:57:13;;;;;;;7.25;3.80;;;;;;;9.03;64.09;100589.94;5007533;28;20144;-78
2022/10/13 04:59:43;;;;;;;7.15;3.40;;;;;;;9.10;63.87;100595.19;5003064;28;20501;-79
2022/10/13 05:02:09;;;;;;;7.60;3.65;;;;;;;8.93;63.52;100559.56;4975800;28;20148;-81
2022/10/13 05:04:35;;;;;;;6.00;3.97;;;;;;;9.06;63.55;100580.44;5007927;28;20072;-80
2022/10/13 05:07:01;;;;;;;6.07;3.97;;;;;;;9.01;63.76;100570.88;5001547;28;20100;-79
2022/10/13 05:09:28;;;;;;;11.88;4.10;;;;;;;9.09;63.52;100583.91;5022049;28;20458;-80
2022/10/13 05:11:57;;;;;;;7.03;3.80;;;;;;;9.16;63.67;100585.72;4987231;28;20124;-80
2022/10/13 05:14:25;;;;;;;8.40;4.43;;;;;;;9.31;63.10;100610.97;5006438;28;20096;-79
2022/10/13 05:16:51;;;;;;;5.68;3.80;;;;;;;9.34;63.33;100599.72;5004805;28;20045;-79
2022/10/13 05:19:17;;;;;;;6.90;3.85;;;;;;;9.38;63.20;100609.28;4989419;28;20038;-80
2022/10/13 05:21:43;;;;;;;4.55;3.35;;;;;;;9.30;63.39;100587.56;5004093;28;20044;-77
2022/10/13 05:24:12;;;;;;;5.05;3.50;;;;;;;9.45;62.72;100597.22;5005935;28;20528;-80
2022/10/13 05:26:40;;;;;;;8.63;4.05;;;;;;;9.46;62.55;100580.78;4989022;28;20053;-78
2022/10/13 05:29:16;;;;;;;5.97;4.00;;;;;;;9.54;62.49;100579.13;5005860;28;20069;-77
2022/10/13 05:32:13;;;;;;;8.45;4.25;;;;;;;9.84;62.68;100592.31;4988934;28;20046;-80
2022/10/13 05:34:49;;;;;;;13.68;4.15;;;;;;;9.14;62.35;100448.97;5005540;28;20160;-79
2022/10/13 05:37:21;;;;;;;9.57;4.13;;;;;;;9.83;62.01;100534.25;4999549;28;20049;-80
2022/10/13 05:39:50;;;;;;;7.45;3.80;;;;;;;9.71;61.96;100482.22;5006071;28;20041;-78
2022/10/13 05:42:17;;;;;;;9.40;4.00;;;;;;;10.47;61.56;100573.63;5003208;28;20128;-79
2022/10/13 05:44:43;;;;;;;6.53;4.10;;;;;;;10.59;61.29;100599.72;5005881;28;20141;-78
2022/10/13 05:47:09;;;;;;;7.68;4.18;;;;;;;10.64;60.97;100586.69;5008200;28;20048;-80
2022/10/13 05:49:38;;;;;;;8.20;4.00;;;;;;;10.89;60.46;100603.25;5005922;28;20049;-81
2022/10/13 05:52:09;;;;;;;9.85;4.53;;;;;;;10.93;60.19;100599.78;5003866;28;20060;-79
2022/10/13 05:54:46;;;;;;;6.82;4.13;;;;;;;10.89;60.01;100577.22;5018357;28;20044;-79
2022/10/13 05:57:27;;;;;;;7.00;4.38;;;;;;;11.13;60.01;100607.66;5020917;28;20050;-80
2022/10/13 06:00:13;;;;;;;9.20;4.40;;;;;;;11.18;59.84;100619.81;5007385;28;20069;-79
2022/10/13 06:03:03;;;;;;;9.32;4.90;;;;;;;11.25;59.14;100611.13;5008613;28;20497;-79
2022/10/13 06:05:31;;;;;;;9.13;4.25;;;;;;;11.18;58.81;100580.72;5008138;28;20091;-80
2022/10/13 06:08:11;;;;;;;6.38;4.80;;;;;;;11.19;58.67;100583.34;5008599;28;20050;-78
2022/10/13 06:10:37;;;;;;;6.32;4.20;;;;;;;11.27;58.74;100589.41;4992336;28;20094;-79
2022/10/13 06:13:03;;;;;;;7.40;4.72;;;;;;;11.26;58.71;100590.28;5013039;28;20053;-82
2022/10/13 06:15:36;;;;;;;6.63;4.00;;;;;;;11.53;58.47;100624.19;5024299;28;20099;-80
2022/10/13 06:18:09;;;;;;;5.75;4.35;;;;;;;11.30;58.07;100578.16;5009606;28;20046;-78
2022/10/13 06:20:35;;;;;;;7.43;4.35;;;;;;;11.57;57.82;100623.34;5009033;28;20050;-81
2022/10/13 06:23:02;;;;;;;7.80;4.70;;;;;;;11.15;57.83;100555.56;5012199;28;20049;-80
2022/10/13 06:25:33;;;;;;;9.15;5.10;;;;;;;11.27;57.35;100588.56;4982646;28;20033;-80
2022/10/13 06:28:19;;;;;;;5.45;4.22;;;;;;;10.77;57.65;100514.72;5012724;28;20049;-81
2022/10/13 06:30:59;;;;;;;8.20;4.32;;;;;;;11.51;57.38;100620.72;5016303;28;20073;-80
2022/10/13 06:33:28;;;;;;;7.78;4.70;;;;;;;11.20;57.25;100550.34;5034361;28;20041;-82
2022/10/13 06:36:06;;;;;;;5.60;4.35;;;;;;;11.28;56.98;100548.63;5002862;28;20054;-81
2022/10/13 06:38:33;;;;;;;13.63;4.50;;;;;;;11.28;56.95;100522.56;5011693;28;20042;-83
2022/10/13 06:41:05;;;;;;;7.43;4.47;;;;;;;11.38;56.85;100516.47;4995237;28;20042;-81
2022/10/13 06:43:33;;;;;;;8.60;4.85;;;;;;;11.71;56.54;100578.97;5010998;28;20096;-81
2022/10/13 06:46:11;;;;;;;8.18;5.40;;;;;;;12.02;56.64;100618.09;4994430;28;20057;-82
2022/10/13 06:48:38;;;;;;;8.05;5.00;;;;;;;11.69;56.07;100529.47;5008870;28;20034;-82
2022/10/13 06:51:07;;;;;;;12.00;4.50;;;;;;;12.09;55.50;100558.94;5011290;28;20034;-78
2022/10/13 06:54:11;;;;;;;14.43;5.10;;;;;;;12.48;55.35;100615.38;5015156;28;20100;-80
2022/10/13 06:56:37;;;;;;;7.72;4.40;;;;;;;11.44;54.77;100440.91;4999517;28;20034;-78
2022/10/13 06:59:09;;;;;;;;;;;;;;;12.63;54.69;100624.00;5012227;28;20073;-81
2022/10/13 07:01:37;;;;;;;9.43;4.55;;;;;;;12.61;54.64;100621.41;4999647;28;20728;-82
2022/10/13 07:04:08;;;;;;;6.65;4.97;;;;;;;12.54;54.34;100588.38;4997452;28;20037;-81
2022/10/13 07:06:34;;;;;;;8.35;5.88;;;;;;;12.74;54.18;100624.84;5011950;28;20048;-80
2022/10/13 07:09:43;;;;;;;8.57;4.70;;;;;;;12.37;53.88;100558.88;4996456;28;20048;-81
2022/10/13 07:12:12;;;;;;;7.80;4.18;;;;;;;13.09;53.81;100644.66;5004989;28;20062;-81
2022/10/13 07:14:42;;;;;;;8.68;3.97;;;;;;;12.68;53.68;100523.03;5010948;28;20090;-81
2022/10/13 07:17:17;;;;;;;8.45;5.13;;;;;;;13.57;53.01;100624.34;5012030;28;20064;-82
2022/10/13 07:19:47;;;;;;;10.30;4.82;;;;;;;13.61;52.66;100606.00;4999278;28;20041;-80
2022/10/13 07:22:16;;;;;;;10.40;4.80;;;;;;;13.12;52.00;100518.38;5007498;28;20103;-80
2022/10/13 07:24:43;;;;;;;6.75;4.47;;;;;;;13.73;52.31;100628.56;4989119;28;20035;-81
2022/10/13 07:27:09;;;;;;;9.40;4.68;;;;;;;13.58;51.66;100599.91;4996552;28;20382;-80
2022/10/13 07:29:35;;;;;;;10.60;5.40;;;;;;;13.54;51.74;100613.03;5000242;28;20045;-82
2022/10/13 07:32:12;;;;;;;7.18;4.80;;;;;;;13.08;51.53;100548.03;5012012;28;20049;-81
2022/10/13 07:34:38;;;;;;;7.40;4.82;;;;;;;13.57;51.37;100630.44;4996278;28;20049;-80
2022/10/13 07:37:09;;;;;;;7.43;5.03;;;;;;;13.15;51.32;100565.38;5027767;28;20060;-81
2022/10/13 07:39:37;;;;;;;7.13;5.22;;;;;;;13.43;51.36;100619.25;5009873;28;20045;-81
2022/10/13 07:42:38;;;;;;;9.77;5.80;;;;;;;13.04;51.11;100590.72;4994023;28;20049;-82
2022/10/13 07:45:37;;;;;;;12.70;6.07;;;;;;;12.53;51.33;100546.63;4983799;28;20370;-82
2022/10/13 07:48:10;;;;;;;9.45;5.68;;;;;;;11.73;51.65;100455.59;5008581;28;20060;-81
2022/10/13 07:50:37;;;;;;;12.25;5.82;;;;;;;12.34;51.48;100581.47;5012434;28;20045;-80
2022/10/13 07:53:06;;;;;;;12.32;6.38;;;;;;;12.05;52.02;100538.09;5010558;28;20038;-81
2022/10/13 07:55:36;;;;;;;10.68;6.38;;;;;;;12.23;52.05;100561.53;5007453;28;20913;-81
2022/10/13 07:58:46;;;;;;;15.32;6.53;;;;;;;12.63;52.15;100644.88;4992880;28;20052;-79
2022/10/13 08:01:14;;;;;;;12.10;6.10;;;;;;;12.21;51.63;100574.59;5008454;28;20504;-81
2022/10/13 08:03:42;;;;;;;8.95;6.03;;;;;;;12.55;51.92;100644.06;4976549;28;20098;-79
2022/10/13 08:06:12;;;;;;;13.82;6.57;;;;;;;12.33;52.21;100605.00;5010585;28;20448;-80
2022/10/13 08:08:46;;;;;;;11.20;6.18;;;;;;;12.60;52.46;100632.72;5010778;28;20069;-79
2022/10/13 08:12:10;;;;;;;11.25;5.78;;;;;;;12.78;52.13;100633.50;5028058;28;20061;-81
2022/10/13 08:14:36;;;;;;;14.68;6.40;;;;;;;12.87;52.20;100641.31;5014784;28;20045;-81
2022/10/13 08:17:31;;;;;;;11.50;7.15;;;;;;;13.02;51.77;100639.50;5009558;28;20096;-81
2022/10/13 08:20:05;;;;;;;11.15;6.10;;;;;;;13.24;51.63;100638.50;5012501;28;20064;-82
2022/10/13 08:23:20;;;;;;;9.35;5.22;;;;;;;13.65;51.50;100636.50;5010836;28;20065;-82
2022/10/13 08:26:17;;;;;;;10.35;5.30;;;;;;;13.75;51.04;100537.00;4995052;28;20046;-81
2022/10/13 08:29:43;;;;;;;11.50;4.80;;;;;;;14.40;49.84;100479.53;5007644;28;20064;-82
2022/10/13 08:33:05;;;;;;;6.43;4.40;;;;;;;15.84;48.02;100552.38;4949014;28;20051;-82
2022/10/13 08:35:34;;;;;;;6.93;3.67;;;;;;;16.06;46.36;100546.75;4943859;28;20149;-80
2022/10/13 08:38:03;;;;;;;10.10;4.20;;;;;;;16.58;45.68;100609.63;5005463;28;20073;-83
2022/10/13 08:40:29;;;;;;;8.38;4.43;;;;;;;16.75;45.24;100623.25;5006459;28;20120;-81
2022/10/13 08:43:03;;;;;;;6.25;4.00;;;;;;;16.85;44.33;100602.91;5006827;28;20526;-83
2022/10/13 08:45:31;;;;;;;9.73;3.67;;;;;;;17.01;44.12;100574.53;5006022;28;20497;-80
2022/10/13 08:48:11;;;;;;;6.32;3.45;;;;;;;17.65;43.17;100618.56;5007820;28;20112;-79
2022/10/13 08:50:55;;;;;;;12.27;3.67;;;;;;;17.47;42.14;100614.63;5006418;28;20077;-82
2022/10/13 08:53:30;;;;;;;7.28;3.80;;;;;;;16.97;42.30;100618.44;5008274;28;20136;-82
2022/10/13 08:56:31;;;;;;;8.73;4.05;;;;;;;16.49;42.36;100590.50;5007188;28;20049;-81
2022/10/13 08:58:57;;;;;;;5.32;3.50;;;;;;;16.53;42.41;100592.19;5007464;28;20054;-81
2022/10/13 09:01:35;;;;;;;5.25;3.90;;;;;;;16.61;41.56;100631.41;4987706;28;20030;-83
2022/10/13 09:04:39;;;;;;;4.18;3.30;;;;;;;16.31;41.91;100635.53;5005249;28;20049;-82
2022/10/13 09:07:16;;;;;;;;;;;;;;;16.00;42.04;100641.38;5017872;28;20034;-84
2022/10/13 09:09:56;;;;;;;8.30;3.70;;;;;;;15.89;42.53;100641.56;4994085;28;19922;-81
2022/10/13 09:12:42;;;;;;;8.85;3.55;;;;;;;15.71;42.61;100605.97;5000210;28;20038;-83
2022/10/13 09:15:21;;;;;;;8.35;4.20;;;;;;;15.81;42.93;100621.53;5006886;28;20069;-78
2022/10/13 09:18:11;;;;;;;8.27;3.88;;;;;;;15.68;42.50;100613.91;4998169;28;20493;-81
2022/10/13 09:20:47;;;;;;;7.87;4.83;;;;;;;15.19;43.24;100579.72;5290560;22;20143;-82
2022/10/13 09:23:21;;;;;;;5.70;4.07;;;;;;;15.58;43.12;100627.16;5084331;28;20044;-79
2022/10/13 09:25:57;;;;;;;7.45;4.78;;;;;;;15.74;42.91;100617.28;5087114;28;20040;-82
2022/10/13 09:28:31;;;;;;;8.57;4.65;;;;;;;15.91;43.02;100621.38;5086897;28;20044;-81
2022/10/13 09:31:31;;;;;;;9.60;4.47;;;;;;;15.96;42.46;100624.78;5077118;28;20052;-82
2022/10/13 09:34:07;;;;;;;11.68;4.35;;;;;;;15.65;42.88;100560.59;5091356;28;20040;-83
2022/10/13 09:36:57;;;;;;;5.70;4.50;;;;;;;16.16;42.82;100613.94;5070777;28;20127;-82
2022/10/13 09:39:23;;;;;;;7.07;4.18;;;;;;;16.13;42.54;100624.50;5061130;28;20036;-80
2022/10/13 09:41:50;;;;;;;7.80;4.45;;;;;;;16.22;42.59;100621.69;5044000;28;20033;-78
2022/10/13 09:44:30;;;;;;;6.90;4.68;;;;;;;16.31;41.89;100597.03;5079456;28;20157;-82
2022/10/13 09:47:15;;;;;;;;;;;;;;;;;;;;;
2022/10/13 09:50:22;;;;;;;9.02;3.90;;;;;;;15.66;42.28;100579.84;5069674;28;20112;-80
2022/10/13 09:52:48;;;;;;;11.00;4.18;;;;;;;16.64;42.18;100522.78;5048615;28;20044;-79
2022/10/13 09:55:33;;;;;;;6.00;3.58;;;;;;;17.71;39.92;100626.31;5051427;28;20136;-84
2022/10/13 09:58:20;;;;;;;5.40;3.78;;;;;;;17.38;39.70;100635.91;5054995;28;20052;-80
2022/10/13 10:00:51;;;;;;;7.70;3.50;;;;;;;16.89;40.53;100601.94;5073320;28;20428;-80
2022/10/13 10:03:27;;;;;;;;;;;;;;;17.20;40.49;100630.19;5066084;28;20040;-80
2022/10/13 10:05:59;;;;;;;7.53;3.88;;;;;;;17.01;40.52;100632.38;5073645;28;19920;-82
2022/10/13 10:09:04;;;;;;;9.35;3.50;;;;;;;16.93;40.58;100642.16;5081055;28;20040;-85
2022/10/13 10:11:41;;;;;;;6.38;3.78;;;;;;;16.61;40.34;100612.19;5063677;28;20062;-81
2022/10/13 10:14:13;;;;;;;6.25;3.70;;;;;;;16.66;40.57;100634.81;5050987;28;20048;-79
2022/10/13 10:16:45;;;;;;;4.25;3.30;;;;;;;16.56;40.93;100628.91;5066310;28;20296;-81
2022/10/13 10:20:21;;;;;;;4.72;3.40;;;;;;;16.13;40.99;100548.38;5068101;28;20048;-84
2022/10/13 10:23:13;;;;;;;5.90;3.47;;;;;;;16.81;40.48;100628.38;5060942;28;20500;-80
2022/10/13 10:26:18;;;;;;;5.13;3.45;;;;;;;16.74;40.65;100629.41;5082515;28;20059;-79
2022/10/13 10:28:56;;;;;;;6.78;3.58;;;;;;;16.71;40.72;100626.84;5056763;28;20060;-80
2022/10/13 10:31:48;;;;;;;6.57;3.60;;;;;;;16.51;40.49;100629.91;5069995;28;20064;-81
2022/10/13 10:34:37;;;;;;;6.28;3.47;;;;;;;16.30;41.01;100595.28;5063496;28;20648;-81
2022/10/13 10:37:33;;;;;;;3.42;3.08;;;;;;;16.70;40.79;100633.88;5078594;28;20049;-81
2022/10/13 10:40:36;;;;;;;4.10;3.17;;;;;;;16.36;40.55;100628.44;5078427;28;20048;-81
2022/10/13 10:43:12;;;;;;;6.30;3.15;;;;;;;16.03;40.85;100636.94;5079652;28;20117;-80
2022/10/13 10:46:07;;;;;;;4.70;2.72;;;;;;;15.91;41.77;100638.00;5069009;28;20045;-83
2022/10/13 10:48:39;;;;;;;5.90;2.88;;;;;;;15.91;41.63;100632.75;5070385;28;20449;-78
2022/10/13 10:51:08;;;;;;;4.25;3.85;;;;;;;15.96;41.78;100601.19;5069470;28;20455;-80
2022/10/13 10:53:47;;;;;;;5.97;3.10;;;;;;;16.17;41.12;100641.94;5053373;28;20449;-80
2022/10/13 10:56:32;;;;;;;4.43;3.00;;;;;;;15.87;40.93;100636.31;5068772;28;20051;-79
2022/10/13 10:59:40;;;;;;;4.40;3.40;;;;;;;15.32;41.52;100641.56;5072754;28;20044;-79
2022/10/13 11:02:05;;;;;;;6.88;3.50;;;;;;;14.89;42.10;100647.44;5090621;28;20037;-80
2022/10/13 11:04:45;;;;;;;6.68;4.05;;;;;;;14.65;42.71;100643.31;5065861;28;20086;-79
2022/10/13 11:07:35;;;;;;;7.22;4.10;;;;;;;14.30;43.07;100622.78;5080155;28;20040;-81
2022/10/13 11:10:25;;;;;;;6.18;4.00;;;;;;;14.15;43.46;100642.13;5042887;28;20147;-80
2022/10/13 11:12:54;;;;;;;6.37;3.97;;;;;;;14.02;43.69;100637.88;5065771;28;20052;-81
2022/10/13 11:15:36;;;;;;;6.35;4.00;;;;;;;13.95;44.32;100638.84;5032835;28;20048;-81
2022/10/13 11:18:42;;;;;;;7.07;3.70;;;;;;;13.45;44.05;100566.03;5033158;28;20036;-79
2022/10/13 11:21:12;;;;;;;6.38;3.75;;;;;;;13.73;44.17;100628.56;5034899;28;20040;-80
2022/10/13 11:23:44;;;;;;;5.97;3.30;;;;;;;13.51;44.61;100601.72;5073429;28;20041;-79
2022/10/13 11:26:28;;;;;;;4.50;3.30;;;;;;;13.71;44.70;100630.34;5068274;28;20090;-81
2022/10/13 11:28:57;;;;;;;6.30;3.20;;;;;;;13.61;44.85;100612.97;5044705;28;20040;-79
2022/10/13 11:31:33;;;;;;;11.15;3.80;;;;;;;13.77;44.87;100638.13;5064004;28;20631;-80
2022/10/13 11:34:01;;;;;;;8.25;3.80;;;;;;;13.73;45.04;100627.69;5037478;28;20589;-80
2022/10/13 11:36:46;;;;;;;6.28;3.90;;;;;;;13.95;45.00;100631.84;5002057;22;20133;-82
2022/10/13 11:39:26;;;;;;;5.15;3.20;;;;;;;14.01;44.99;100636.16;5023683;28;20073;-81
2022/10/13 11:42:12;;;;;;;4.40;3.55;;;;;;;13.84;44.97;100625.84;5000970;28;20034;-80
2022/10/13 11:44:56;;;;;;;7.85;3.50;;;;;;;13.89;45.13;100637.16;4998011;28;20041;-81
2022/10/13 11:48:00;;;;;;;3.78;3.38;;;;;;;13.74;45.12;100627.69;4984483;28;20053;-81
2022/10/13 11:50:53;;;;;;;7.15;4.00;;;;;;;13.43;45.32;100622.69;5002815;28;20410;-80
2022/10/13 11:53:51;;;;;;;3.78;3.05;;;;;;;12.78;45.64;100581.28;5018426;28;20070;-81
2022/10/13 11:56:42;;;;;;;4.90;2.80;;;;;;;12.99;45.65;100629.06;4999658;28;20057;-79
2022/10/13 11:59:36;;;;;;;6.28;3.05;;;;;;;12.99;45.77;100632.56;4984218;28;20405;-79
2022/10/13 12:02:08;;;;;;;3.65;2.80;;;;;;;12.76;45.50;100633.53;4998061;28;20037;-82
2022/10/13 12:04:58;;;;;;;6.95;3.58;;;;;;;12.49;45.98;100605.78;4999465;28;20195;-81
2022/10/13 12:07:38;;;;;;;4.38;2.92;;;;;;;11.90;46.24;100553.75;4982141;28;20760;-80
2022/10/13 12:10:16;;;;;;;7.97;2.88;;;;;;;12.27;46.56;100647.59;4997603;28;20732;-80